Portada
METAR-TAF:

METAR-TAF

Aeroports :

Medan, Sumatra Septentrional, Indonèsia

latitud: 03-34N, longitud: 098-41E, altitud: 25 m

Observació

L'informe es va fer fa 27 minuts, a les 11:00 UTC
Vent 4 kt del Sud/Sud-Oest
Temperatura 26°C
Humitat 94%
Pressió 1010 hPa
Visibilitat 10 km o més
Núvols disperses a una alçada de 1700 ft

METAR: WIMM 071100Z 21004KT 9999 SCT017 26/25 Q1010 NOSIG

Hora: 18:27 (11:27 UTC)

Pronòstic

L'informe es va fer fa 6 hores i 27 minuts, a les 05:00 UTC
Pronòstic vàlid del 07 a les 06 UTC al 08 a les 06 UTC
Vent 10 kt del Nord-Oest
Visibilitat: 8000 m
Núvols disperses a una alçada de 1700 ft
Evolucionant progressivament
l' 07 a les 12 UTC al 07 a les 14 UTC
Vent 4 kt amb direcció variable
Visibilitat: 5000 m
calitja

TAF: WIMM 070500Z 0706/0806 31010KT 8000 SCT017 BECMG 0712/0714 VRB04KT 5000 HZ

Observacions i pronòstics meteorològics de més de 4000 aeroports (METAR i TAF).

Les estacions disponibles són els punts grocs i vermells al mapa.

Posi el ratolí al punt desitjat per veure el nom de l'estació.

Feu clic per veure les observacions i els pronòstics meteorològics.

Per canviar el mapa: feu clic els botons verds amb una creu de color negre per apropar; al botó verd amb un guió per allunyar la imatge; o en les fletxes verdes per a mapes adjacents.


METAR-TAF: